Terminal Aerodrome Forecast
Issued by NWS

Home | Current Version | Previous Version | Graphics & Text | Print | Product List | Glossary Off
Versions: 1 2 3 4 5 6 7 8 9 10 11 12 13 14 15 16 17 18 19 20 21 22 23 24 25 26 27 28 29 30 31

000
FTUS43 KLOT 291137
TAFDPA
TAF
KDPA 291137Z 2912/3012 15005KT 5SM -SHRA SCT050 OVC080
     FM291600 18006KT P6SM VCSH SCT040 BKN080
     FM292000 VRB04KT P6SM BKN040
     FM300000 07005KT 4SM BR OVC025
     FM300300 04004KT 2SM BR SCT007 OVC015
     FM300700 00000KT 3/4SM BR OVC005=

USA.gov is the U.S. government's official web portal to all federal, state and local government web resources and services.